Waldeck, Canada
Current Conditions -  °F | °C
As of 8:17 AM on Wednesday 28 Jan 2015 (Local Time) from CYYN Reporting Station
Heavy Snow Heavy Snow  
Wind Chill: 14°   Ceiling: 200
Heat Index: 28°   Visibility: 0.25mi
Dew Point: 27°   Wind: 23mph
Humidity: 93%   Direction: 310°NW
Pressure: 29.97"   Gusts: NA
Location:  50.36°N, 107.59°W
Report Text: CYYN 281417Z AUTO 31020KT 1/4SM +SN -FZRA VV002 M02/M03 A2997 RMK ICG SLP180
Loading
Personal Weather Stations






























Interactive Weather Map New forecast layout! Learn more

10-Day Weather Forecast

Advertisements
Track Severe Weather on mobile